メキシコシティ の空港の天気 - METARとTAF

メキシコ・シティ国際空港 ( MMMX / MEX ) - メキシコ メキシコシティ
飛行場実況気象(Metar)
観測時間08/25 13:45 CDT (08/25 18:45 UTC)
風向・風速東 5m/s
視程10km以上
天気現象
少しの雲 雲底高度 610m
全天の8割程度の雲 雲底高度 7620m
気温25℃
湿度36%
気圧1026hPa
METARMMMX 251845Z 08009KT 8SM FEW020 BKN250 25/09 A3031 NOSIG RMK 8/104 HZY TCU E S W
過去の天気等 Google飛行場航空写真 Wunderground天気予報

過去48時間のMETAR

飛行場予報(TAF)
発表時間: 8/25 12:24 CDT (8/25 17:24 UTC)
予報対象時間: 25日13時 CDT ~ 26日19時 CDT
風向・風速東北東 3m/s
視程10km以上
天気現象煙霧
全天の4割程度の雲 雲底高度 610m
全天の8割程度の雲 雲底高度 7620m
25日16時 CDT から
風向・風速北北東 6m/s
視程10km以上
天気現象周辺で 雨
全天の8割程度の積乱雲 雲底高度 610m
全天の8割程度の雲 雲底高度 2440m
25日17時 CDT ~ 25日21時 CDT に一時的に
視程10km以上
天気現象雷雨
25日22時 CDT から
風向・風速北西 3m/s
視程10km以上
全天の4割程度の雲 雲底高度 610m
全天の8割程度の雲 雲底高度 2440m
26日0時 CDT ~ 26日1時 CDT に徐々に
風向・風速静穏
全天の4割程度の雲 雲底高度 610m
全天の4割程度の雲 雲底高度 2440m
26日7時 CDT から
風向・風速北東 3m/s
視程10km以上
天気現象煙霧
全天の4割程度の雲 雲底高度 610m
全天の4割程度の雲 雲底高度 7620m
26日16時 CDT から
風向・風速東北東 6m/s
視程10km以上
全天の8割程度の積乱雲 雲底高度 610m
全天の8割程度の雲 雲底高度 2440m
26日17時 CDT から 確率 40% で
視程10km以上
天気現象弱い雷雨
TAF MMMX 251724Z 2518/2624 06005KT 6SM HZ SCT020 BKN250 TX26/2522Z TN14/2613Z
FM252100 03012KT P6SM VC RA BKN020CB BKN080
TEMPO 2522/2602 6SM TSRA
FM260300 32005KT P6SM SCT020 BKN080
BECMG 2605/2606 00000KT SCT020 SCT080
FM261200 05005KT 6SM HZ SCT020 SCT250
FM262100 07012KT P6SM BKN020CB BKN080
PROB40 2622/2624 6SM -TSRA